VJA219 KPWM-KBOS
Flight info
| Callsign | VJA219 |
|---|---|
| Flight time | 0h 25m |
| Altitude | 20000 |
| Route | OOSHN OOSHN5 |
| Aircraft | CL60/M-SBDE1E2E3FGHIJ1J4J5J7M3RWXYZ/LB1V1D1 |
Departure
| Time | 2026-05-04 23:06 |
|---|---|
| Airport | Portland International Jetport (KPWM) |
Arrival
| Time | 2026-05-04 23:32 |
|---|---|
| Airport | Boston Logan International Airport (KBOS) |
| Time | Latitude | Longitude | Altitude | Speed | Heading |
|---|---|---|---|---|---|
| 2026-05-04 22:48 | 43.64976 | -70.30806 | 57 ft | 0 kts | 178° |
| 2026-05-04 23:01 | 43.64964 | -70.30799 | 56 ft | 4 kts | 135° |
| 2026-05-04 23:02 | 43.64929 | -70.30711 | 53 ft | 15 kts | 180° |
| 2026-05-04 23:02 | 43.64809 | -70.30708 | 53 ft | 18 kts | 178° |
| 2026-05-04 23:02 | 43.64669 | -70.30702 | 53 ft | 21 kts | 179° |
| 2026-05-04 23:02 | 43.64572 | -70.30653 | 51 ft | 16 kts | 113° |
| 2026-05-04 23:03 | 43.64555 | -70.30468 | 47 ft | 22 kts | 86° |
| 2026-05-04 23:03 | 43.64587 | -70.30244 | 39 ft | 28 kts | 94° |
| 2026-05-04 23:03 | 43.64570 | -70.29984 | 31 ft | 18 kts | 94° |
| 2026-05-04 23:03 | 43.64516 | -70.29919 | 29 ft | 13 kts | 180° |
| 2026-05-04 23:04 | 43.64426 | -70.29916 | 31 ft | 9 kts | 190° |
| 2026-05-04 23:04 | 43.64407 | -70.29943 | 32 ft | 0 kts | 274° |
| 2026-05-04 23:06 | 43.64408 | -70.29974 | 33 ft | 26 kts | 275° |
| 2026-05-04 23:06 | 43.64471 | -70.30881 | 86 ft | 153 kts | 274° |
| 2026-05-04 23:06 | 43.64585 | -70.32461 | 1199 ft | 177 kts | 274° |
| 2026-05-04 23:06 | 43.64735 | -70.34130 | 2345 ft | 186 kts | 275° |
| 2026-05-04 23:07 | 43.64896 | -70.35926 | 2860 ft | 192 kts | 275° |
| 2026-05-04 23:07 | 43.65060 | -70.37843 | 3006 ft | 209 kts | 275° |
| 2026-05-04 23:07 | 43.65232 | -70.39869 | 3118 ft | 214 kts | 275° |
| 2026-05-04 23:07 | 43.65400 | -70.41914 | 3385 ft | 220 kts | 269° |
| 2026-05-04 23:08 | 43.64538 | -70.44551 | 5218 ft | 243 kts | 227° |
| 2026-05-04 23:08 | 43.63694 | -70.45390 | 6569 ft | 237 kts | 217° |
| 2026-05-04 23:08 | 43.62285 | -70.46474 | 8043 ft | 246 kts | 215° |
| 2026-05-04 23:08 | 43.60732 | -70.47659 | 9196 ft | 268 kts | 216° |
| 2026-05-04 23:09 | 43.59026 | -70.48964 | 10132 ft | 299 kts | 215° |
| 2026-05-04 23:09 | 43.57127 | -70.50414 | 10989 ft | 327 kts | 214° |
| 2026-05-04 23:09 | 43.55093 | -70.51954 | 12090 ft | 341 kts | 214° |
| 2026-05-04 23:09 | 43.53025 | -70.53514 | 13247 ft | 349 kts | 214° |
| 2026-05-04 23:10 | 43.50894 | -70.55120 | 14522 ft | 354 kts | 214° |
| 2026-05-04 23:10 | 43.48721 | -70.56758 | 15722 ft | 361 kts | 214° |
| 2026-05-04 23:10 | 43.46462 | -70.58309 | 16887 ft | 371 kts | 207° |
| 2026-05-04 23:10 | 43.43914 | -70.59187 | 17965 ft | 387 kts | 193° |
| 2026-05-04 23:11 | 43.41179 | -70.59088 | 18936 ft | 406 kts | 176° |
| 2026-05-04 23:11 | 43.38455 | -70.57783 | 19644 ft | 431 kts | 156° |
| 2026-05-04 23:11 | 43.35816 | -70.55547 | 19800 ft | 459 kts | 151° |
| 2026-05-04 23:11 | 43.33062 | -70.53104 | 19822 ft | 480 kts | 150° |
| 2026-05-04 23:12 | 43.30240 | -70.50607 | 19810 ft | 484 kts | 151° |
| 2026-05-04 23:12 | 43.27405 | -70.48101 | 19825 ft | 482 kts | 150° |
| 2026-05-04 23:12 | 43.24554 | -70.45585 | 19819 ft | 479 kts | 151° |
| 2026-05-04 23:12 | 43.21774 | -70.43138 | 19827 ft | 479 kts | 151° |
| 2026-05-04 23:13 | 43.18943 | -70.40650 | 19836 ft | 479 kts | 151° |
| 2026-05-04 23:13 | 43.16145 | -70.38196 | 19828 ft | 479 kts | 151° |
| 2026-05-04 23:13 | 43.13314 | -70.35715 | 19831 ft | 478 kts | 151° |
| 2026-05-04 23:13 | 43.10518 | -70.33270 | 19829 ft | 478 kts | 151° |
| 2026-05-04 23:14 | 43.07716 | -70.30823 | 19840 ft | 478 kts | 151° |
| 2026-05-04 23:14 | 43.04913 | -70.28379 | 19837 ft | 478 kts | 151° |
| 2026-05-04 23:14 | 43.02085 | -70.25916 | 19841 ft | 478 kts | 151° |
| 2026-05-04 23:14 | 42.99268 | -70.23466 | 19850 ft | 478 kts | 150° |
| 2026-05-04 23:15 | 42.96465 | -70.21032 | 19864 ft | 478 kts | 151° |
| 2026-05-04 23:15 | 42.93653 | -70.18592 | 19852 ft | 478 kts | 151° |
| 2026-05-04 23:15 | 42.90858 | -70.16171 | 19854 ft | 478 kts | 150° |
| 2026-05-04 23:15 | 42.88025 | -70.13720 | 19854 ft | 478 kts | 150° |
| 2026-05-04 23:16 | 42.85224 | -70.11299 | 19767 ft | 479 kts | 150° |
| 2026-05-04 23:16 | 42.82484 | -70.08933 | 19312 ft | 472 kts | 150° |
| 2026-05-04 23:16 | 42.79584 | -70.06795 | 18718 ft | 448 kts | 162° |
| 2026-05-04 23:16 | 42.76639 | -70.05668 | 18105 ft | 429 kts | 175° |
| 2026-05-04 23:17 | 42.73725 | -70.05451 | 17575 ft | 416 kts | 188° |
| 2026-05-04 23:17 | 42.70888 | -70.06033 | 17053 ft | 408 kts | 199° |
| 2026-05-04 23:17 | 42.68243 | -70.07277 | 16513 ft | 396 kts | 209° |
| 2026-05-04 23:17 | 42.65963 | -70.09219 | 15989 ft | 386 kts | 224° |
| 2026-05-04 23:18 | 42.64193 | -70.11864 | 15456 ft | 375 kts | 239° |
| 2026-05-04 23:18 | 42.62972 | -70.14897 | 14921 ft | 359 kts | 248° |
| 2026-05-04 23:18 | 42.61933 | -70.17939 | 14468 ft | 344 kts | 248° |
| 2026-05-04 23:18 | 42.60943 | -70.20812 | 14013 ft | 332 kts | 248° |
| 2026-05-04 23:19 | 42.60179 | -70.23669 | 13616 ft | 315 kts | 261° |
| 2026-05-04 23:19 | 42.59983 | -70.26585 | 13182 ft | 305 kts | 268° |
| 2026-05-04 23:19 | 42.59861 | -70.29394 | 12781 ft | 296 kts | 268° |
| 2026-05-04 23:19 | 42.59734 | -70.32170 | 12397 ft | 288 kts | 268° |
| 2026-05-04 23:20 | 42.59611 | -70.34861 | 12011 ft | 281 kts | 268° |
| 2026-05-04 23:20 | 42.59490 | -70.37466 | 11652 ft | 275 kts | 268° |
| 2026-05-04 23:20 | 42.59371 | -70.40041 | 11279 ft | 269 kts | 268° |
| 2026-05-04 23:20 | 42.59254 | -70.42539 | 10945 ft | 263 kts | 268° |
| 2026-05-04 23:21 | 42.59138 | -70.45018 | 10596 ft | 263 kts | 269° |
| 2026-05-04 23:21 | 42.59022 | -70.47489 | 10241 ft | 263 kts | 268° |
| 2026-05-04 23:21 | 42.58906 | -70.49978 | 9881 ft | 263 kts | 269° |
| 2026-05-04 23:21 | 42.59108 | -70.52377 | 9555 ft | 259 kts | 291° |
| 2026-05-04 23:22 | 42.60051 | -70.54449 | 9304 ft | 256 kts | 305° |
| 2026-05-04 23:22 | 42.61144 | -70.56380 | 9116 ft | 260 kts | 306° |
| 2026-05-04 23:22 | 42.62281 | -70.58356 | 8766 ft | 261 kts | 306° |
| 2026-05-04 23:22 | 42.63363 | -70.60215 | 8957 ft | 250 kts | 306° |
| 2026-05-04 23:23 | 42.64375 | -70.62169 | 9099 ft | 252 kts | 294° |
| 2026-05-04 23:23 | 42.64658 | -70.64470 | 9134 ft | 255 kts | 266° |
| 2026-05-04 23:23 | 42.64257 | -70.66842 | 8849 ft | 252 kts | 256° |
| 2026-05-04 23:23 | 42.63765 | -70.69061 | 8501 ft | 242 kts | 256° |
| 2026-05-04 23:24 | 42.63277 | -70.71230 | 8186 ft | 234 kts | 256° |
| 2026-05-04 23:24 | 42.62808 | -70.73313 | 7794 ft | 233 kts | 255° |
| 2026-05-04 23:24 | 42.62335 | -70.75445 | 7448 ft | 232 kts | 255° |
| 2026-05-04 23:24 | 42.61884 | -70.77527 | 7011 ft | 233 kts | 256° |
| 2026-05-04 23:25 | 42.61432 | -70.79649 | 6487 ft | 230 kts | 256° |
| 2026-05-04 23:25 | 42.61004 | -70.81688 | 6103 ft | 222 kts | 256° |
| 2026-05-04 23:25 | 42.60600 | -70.83617 | 6026 ft | 201 kts | 256° |
| 2026-05-04 23:25 | 42.60215 | -70.85466 | 5989 ft | 205 kts | 256° |
| 2026-05-04 23:26 | 42.59663 | -70.87227 | 5575 ft | 208 kts | 236° |
| 2026-05-04 23:26 | 42.58478 | -70.88359 | 5049 ft | 212 kts | 211° |
| 2026-05-04 23:26 | 42.57141 | -70.89150 | 4471 ft | 205 kts | 208° |
| 2026-05-04 23:26 | 42.55887 | -70.89861 | 3855 ft | 188 kts | 208° |
| 2026-05-04 23:27 | 42.54731 | -70.90518 | 3277 ft | 174 kts | 208° |
| 2026-05-04 23:27 | 42.53640 | -70.91130 | 2697 ft | 165 kts | 208° |
| 2026-05-04 23:27 | 42.52630 | -70.91722 | 2200 ft | 154 kts | 211° |
| 2026-05-04 23:27 | 42.51669 | -70.92310 | 2023 ft | 151 kts | 211° |
| 2026-05-04 23:28 | 42.50704 | -70.92906 | 2022 ft | 152 kts | 211° |
| 2026-05-04 23:28 | 42.49733 | -70.93505 | 2024 ft | 151 kts | 210° |
| 2026-05-04 23:28 | 42.48777 | -70.94105 | 2014 ft | 151 kts | 212° |
| 2026-05-04 23:28 | 42.47800 | -70.94657 | 2017 ft | 153 kts | 205° |
| 2026-05-04 23:29 | 42.46782 | -70.95091 | 2028 ft | 153 kts | 205° |
| 2026-05-04 23:29 | 42.45773 | -70.95563 | 2003 ft | 154 kts | 206° |
| 2026-05-04 23:29 | 42.44776 | -70.96071 | 1740 ft | 151 kts | 212° |
| 2026-05-04 23:29 | 42.43869 | -70.96761 | 1372 ft | 147 kts | 217° |
| 2026-05-04 23:30 | 42.42997 | -70.97495 | 996 ft | 148 kts | 211° |
| 2026-05-04 23:30 | 42.42018 | -70.97929 | 802 ft | 150 kts | 197° |
| 2026-05-04 23:30 | 42.41037 | -70.98235 | 1020 ft | 136 kts | 199° |
| 2026-05-04 23:30 | 42.40176 | -70.98746 | 812 ft | 131 kts | 207° |
| 2026-05-04 23:31 | 42.39344 | -70.99114 | 516 ft | 117 kts | 204° |
| 2026-05-04 23:31 | 42.38600 | -70.99481 | 377 ft | 113 kts | 203° |
| 2026-05-04 23:31 | 42.37871 | -70.99836 | 194 ft | 111 kts | 205° |
| 2026-05-04 23:31 | 42.37143 | -71.00195 | 18 ft | 101 kts | 202° |
| 2026-05-04 23:32 | 42.36604 | -71.00453 | 15 ft | 48 kts | 199° |
| 2026-05-04 23:32 | 42.36406 | -71.00588 | 16 ft | 24 kts | 249° |
| 2026-05-04 23:32 | 42.36431 | -71.00762 | 16 ft | 18 kts | 291° |
| 2026-05-04 23:32 | 42.36482 | -71.00929 | 16 ft | 17 kts | 291° |
| 2026-05-04 23:33 | 42.36499 | -71.00984 | 16 ft | 0 kts | 291° |
| 2026-05-04 23:33 | 42.36525 | -71.01071 | 17 ft | 18 kts | 290° |
| 2026-05-04 23:33 | 42.36562 | -71.01194 | 18 ft | 8 kts | 292° |
| 2026-05-04 23:33 | 42.36582 | -71.01259 | 18 ft | 5 kts | 303° |
| 2026-05-04 23:34 | 42.36594 | -71.01275 | 18 ft | 2 kts | 322° |